Time;durP1;ratioP1;P1;durP2;ratioP2;P2;SDS_P1;SDS_P2;PMS_P1;PMS_P2;Temp;Humidity;BMP_temperature;BMP_pressure;BME280_temperature;BME280_humidity;BME280_pressure;Samples;Min_cycle;Max_cycle;Signal;HPM_P1;HPM_P2
2024/02/14 00:00:45;;;;;;;7.78;3.65;;;9.50;99.90;;;;;;5037359;28;20034;-86
2024/02/14 00:03:10;;;;;;;6.90;3.40;;;9.50;99.90;;;;;;5029417;28;20395;-86
2024/02/14 00:05:36;;;;;;;7.57;3.10;;;9.40;99.90;;;;;;5019695;28;20061;-87
2024/02/14 00:08:03;;;;;;;9.50;3.03;;;9.50;99.90;;;;;;5033875;28;20021;-86
2024/02/14 00:10:28;;;;;;;7.10;4.28;;;9.50;99.90;;;;;;5028684;28;20238;-87
2024/02/14 00:12:54;;;;;;;7.45;3.75;;;9.50;99.90;;;;;;5025661;28;20076;-87
2024/02/14 00:15:20;;;;;;;9.32;3.47;;;9.50;99.90;;;;;;5023130;28;20128;-87
2024/02/14 00:17:45;;;;;;;4.75;2.85;;;9.50;99.90;;;;;;5032629;28;20025;-87
2024/02/14 00:20:14;;;;;;;9.02;3.75;;;9.50;99.90;;;;;;5032443;28;20052;-86
2024/02/14 00:22:39;;;;;;;10.75;3.33;;;9.50;99.90;;;;;;5030151;28;20528;-87
2024/02/14 00:25:05;;;;;;;8.13;3.47;;;9.40;99.90;;;;;;5026393;28;20033;-87
2024/02/14 00:27:31;;;;;;;7.57;3.08;;;9.40;99.90;;;;;;5028803;28;20510;-87
2024/02/14 00:29:56;;;;;;;6.60;3.38;;;9.40;99.90;;;;;;5033787;28;20018;-86
2024/02/14 00:32:22;;;;;;;8.52;3.53;;;9.40;99.90;;;;;;5023247;28;20022;-86
2024/02/14 00:34:49;;;;;;;8.73;4.10;;;9.40;99.90;;;;;;5030500;28;20071;-86
2024/02/14 00:37:14;;;;;;;7.55;3.47;;;9.40;99.90;;;;;;5034417;28;20044;-87
2024/02/14 00:39:40;;;;;;;8.23;3.10;;;9.40;99.90;;;;;;5029652;28;20479;-87
2024/02/14 00:42:06;;;;;;;6.60;3.35;;;9.40;99.90;;;;;;5030475;28;20448;-87
2024/02/14 00:44:31;;;;;;;6.88;3.30;;;9.40;99.90;;;;;;5028974;28;20025;-87
2024/02/14 00:47:02;;;;;;;10.32;2.95;;;9.40;99.90;;;;;;5024467;28;20021;-86
2024/02/14 00:49:28;;;;;;;5.85;3.08;;;9.40;99.90;;;;;;5020988;28;20037;-87
2024/02/14 00:51:53;;;;;;;11.25;3.13;;;9.40;99.90;;;;;;5024369;28;20025;-87
2024/02/14 00:54:19;;;;;;;6.68;3.00;;;9.40;99.90;;;;;;5026826;28;20056;-87
2024/02/14 00:56:45;;;;;;;6.45;2.80;;;9.40;99.90;;;;;;5021467;28;20026;-87
2024/02/14 00:59:10;;;;;;;7.28;3.30;;;9.40;99.90;;;;;;5031654;28;20018;-87
2024/02/14 01:01:36;;;;;;;6.30;3.08;;;9.40;99.90;;;;;;5024368;28;20022;-86
2024/02/14 01:04:02;;;;;;;6.35;2.70;;;9.40;99.90;;;;;;5031115;28;20019;-87
2024/02/14 01:06:30;;;;;;;9.57;3.42;;;9.40;99.90;;;;;;5034068;28;20029;-86
2024/02/14 01:08:55;;;;;;;5.07;2.70;;;9.40;99.90;;;;;;5036752;28;20036;-87
2024/02/14 01:11:21;;;;;;;7.13;3.55;;;9.40;99.90;;;;;;5025405;28;20112;-87
2024/02/14 01:13:47;;;;;;;6.20;2.78;;;9.40;99.90;;;;;;5028635;28;20053;-86
2024/02/14 01:16:12;;;;;;;5.20;3.35;;;9.40;99.90;;;;;;5034522;28;20022;-86
2024/02/14 01:18:38;;;;;;;5.28;2.75;;;9.40;99.90;;;;;;5023746;28;20611;-87
2024/02/14 01:21:03;;;;;;;6.47;3.35;;;9.40;99.90;;;;;;5021275;28;20535;-86
2024/02/14 01:23:29;;;;;;;4.47;3.08;;;9.40;99.90;;;;;;5026174;28;20108;-87
2024/02/14 01:25:55;;;;;;;4.60;3.05;;;9.40;99.90;;;;;;5025564;28;20017;-87
2024/02/14 01:28:21;;;;;;;4.43;2.80;;;9.40;99.90;;;;;;5026268;28;20044;-85
2024/02/14 01:30:46;;;;;;;6.38;2.92;;;9.40;99.90;;;;;;5022861;28;20026;-86
2024/02/14 01:33:12;;;;;;;6.38;3.33;;;9.40;99.90;;;;;;5027544;28;20682;-86
2024/02/14 01:35:37;;;;;;;5.90;3.10;;;9.40;99.90;;;;;;5022970;28;20072;-87
2024/02/14 01:38:03;;;;;;;7.88;2.65;;;9.40;99.90;;;;;;5034673;28;20150;-86
2024/02/14 01:40:29;;;;;;;5.30;2.97;;;9.40;99.90;;;;;;5031605;28;20032;-87
2024/02/14 01:42:55;;;;;;;8.65;2.90;;;9.40;99.90;;;;;;5030330;28;20108;-87
2024/02/14 01:45:21;;;;;;;6.07;3.08;;;9.40;99.90;;;;;;5029970;28;20025;-88
2024/02/14 01:47:48;;;;;;;5.78;3.30;;;9.40;99.90;;;;;;5039539;28;20025;-87
2024/02/14 01:50:14;;;;;;;5.20;2.88;;;9.40;99.90;;;;;;5025447;28;20033;-87
2024/02/14 01:52:40;;;;;;;9.40;3.08;;;9.40;99.90;;;;;;5027549;28;20025;-86
2024/02/14 01:55:08;;;;;;;5.60;3.17;;;9.30;99.90;;;;;;5033881;28;20495;-87
2024/02/14 01:57:35;;;;;;;6.25;3.08;;;9.40;99.90;;;;;;5033041;28;20484;-87
2024/02/14 02:00:08;;;;;;;5.30;2.75;;;9.40;99.90;;;;;;5030772;28;20026;-86
2024/02/14 02:02:36;;;;;;;9.55;2.90;;;9.30;99.90;;;;;;5022565;28;20030;-87
2024/02/14 02:05:02;;;;;;;5.88;2.83;;;9.40;99.90;;;;;;5040691;28;20090;-86
2024/02/14 02:07:28;;;;;;;6.07;3.17;;;9.30;99.90;;;;;;5036856;28;20036;-87
2024/02/14 02:09:54;;;;;;;8.52;3.08;;;9.40;99.90;;;;;;5026212;28;20029;-88
2024/02/14 02:12:19;;;;;;;7.82;2.97;;;9.40;99.90;;;;;;5031489;28;20502;-86
2024/02/14 02:14:45;;;;;;;4.13;2.90;;;9.40;99.90;;;;;;5027834;28;20621;-86
2024/02/14 02:17:12;;;;;;;6.80;3.08;;;9.40;99.90;;;;;;5025540;28;20017;-86
2024/02/14 02:19:38;;;;;;;6.13;3.13;;;9.40;99.90;;;;;;5035698;28;20108;-86
2024/02/14 02:22:04;;;;;;;6.40;3.40;;;9.40;99.90;;;;;;5037532;28;20109;-87
2024/02/14 02:24:30;;;;;;;9.15;3.08;;;9.40;99.90;;;;;;5025338;28;20531;-87
2024/02/14 02:26:56;;;;;;;6.53;3.15;;;9.40;99.90;;;;;;5031780;28;20125;-87
2024/02/14 02:29:22;;;;;;;5.85;2.90;;;9.40;99.90;;;;;;5024916;28;20104;-86
2024/02/14 02:31:48;;;;;;;6.07;3.30;;;9.40;99.90;;;;;;5030169;28;20108;-87
2024/02/14 02:34:13;;;;;;;5.70;3.15;;;9.40;99.90;;;;;;5028656;28;20029;-87
2024/02/14 02:36:40;;;;;;;9.35;3.17;;;9.40;99.90;;;;;;5024512;28;20068;-87
2024/02/14 02:39:06;;;;;;;4.20;2.85;;;9.40;99.90;;;;;;5032489;28;20067;-87
2024/02/14 02:41:31;;;;;;;6.55;3.03;;;9.40;99.90;;;;;;5026358;28;20029;-87
2024/02/14 02:43:57;;;;;;;5.18;3.25;;;9.40;99.90;;;;;;5024645;28;20028;-86
2024/02/14 02:46:23;;;;;;;6.15;3.10;;;9.40;99.90;;;;;;5025442;28;20029;-87
2024/02/14 02:48:49;;;;;;;5.00;2.70;;;9.40;99.90;;;;;;5025675;28;20053;-87
2024/02/14 02:51:17;;;;;;;8.00;3.28;;;9.40;99.90;;;;;;5029120;28;20476;-88
2024/02/14 02:53:43;;;;;;;6.90;3.13;;;9.40;99.90;;;;;;5023627;28;20018;-86
2024/02/14 02:56:09;;;;;;;7.00;3.05;;;9.40;99.90;;;;;;5012682;28;20047;-87
2024/02/14 02:58:34;;;;;;;9.60;3.85;;;9.30;99.90;;;;;;5021019;28;20022;-87
2024/02/14 03:01:00;;;;;;;5.10;3.05;;;9.30;99.90;;;;;;5021363;28;20025;-87
2024/02/14 03:03:27;;;;;;;4.20;2.92;;;9.30;99.90;;;;;;5033660;28;20021;-86
2024/02/14 03:05:55;;;;;;;5.28;2.83;;;9.40;99.90;;;;;;5027115;28;20116;-87
2024/02/14 03:08:21;;;;;;;6.35;3.22;;;9.30;99.90;;;;;;5035700;28;20034;-86
2024/02/14 03:10:47;;;;;;;10.60;3.20;;;9.30;99.90;;;;;;5030508;28;20022;-87
2024/02/14 03:13:16;;;;;;;5.30;2.97;;;9.40;99.90;;;;;;5037024;28;20025;-87
2024/02/14 03:15:43;;;;;;;7.53;3.45;;;9.40;99.90;;;;;;5030873;28;20053;-86
2024/02/14 03:18:09;;;;;;;8.13;3.80;;;9.30;99.90;;;;;;5031769;28;20030;-87
2024/02/14 03:20:35;;;;;;;6.72;2.85;;;9.40;99.90;;;;;;5028828;28;20036;-87
2024/02/14 03:23:03;;;;;;;4.85;3.17;;;9.40;99.90;;;;;;5040739;28;20049;-86
2024/02/14 03:25:29;;;;;;;5.68;3.22;;;9.40;99.90;;;;;;5034941;28;20112;-86
2024/02/14 03:27:56;;;;;;;6.10;2.63;;;9.40;99.90;;;;;;5033137;28;20128;-86
2024/02/14 03:30:22;;;;;;;4.10;2.80;;;9.30;99.90;;;;;;5034343;28;20022;-85
2024/02/14 03:32:49;;;;;;;5.78;3.15;;;9.40;99.90;;;;;;5031085;28;20029;-86
2024/02/14 03:35:16;;;;;;;4.25;2.75;;;9.30;99.90;;;;;;5041755;28;20029;-86
2024/02/14 03:37:43;;;;;;;5.43;2.90;;;9.40;99.90;;;;;;5022958;28;20053;-87
2024/02/14 03:40:09;;;;;;;6.50;2.92;;;9.40;99.90;;;;;;5035157;28;20040;-87
2024/02/14 03:42:35;;;;;;;4.38;2.55;;;9.30;99.90;;;;;;5028106;28;20038;-87
2024/02/14 03:45:05;;;;;;;11.32;3.38;;;9.40;99.90;;;;;;5027128;28;20053;-86
2024/02/14 03:47:34;;;;;;;7.95;2.97;;;9.40;99.90;;;;;;5031030;28;20025;-87
2024/02/14 03:50:00;;;;;;;6.85;3.35;;;9.30;99.90;;;;;;5034771;28;20038;-87
2024/02/14 03:52:26;;;;;;;8.52;2.75;;;9.30;99.90;;;;;;5035215;28;20088;-87
2024/02/14 03:54:52;;;;;;;6.05;3.83;;;9.30;99.90;;;;;;5028152;28;20057;-86
2024/02/14 03:57:17;;;;;;;8.52;3.47;;;9.30;99.90;;;;;;5040461;28;20027;-87
2024/02/14 03:59:44;;;;;;;5.32;3.13;;;9.30;99.90;;;;;;5028478;28;20048;-86
2024/02/14 04:02:10;;;;;;;4.63;2.90;;;9.30;99.90;;;;;;5034632;28;20047;-87
2024/02/14 04:04:38;;;;;;;8.68;3.63;;;9.30;99.90;;;;;;5036959;28;20491;-87
2024/02/14 04:07:04;;;;;;;4.60;2.97;;;9.30;99.90;;;;;;5027947;28;20021;-87
2024/02/14 04:09:29;;;;;;;5.80;3.30;;;9.30;99.90;;;;;;5028069;28;20518;-87
2024/02/14 04:11:55;;;;;;;5.20;3.38;;;9.30;99.90;;;;;;5024557;28;20025;-87
2024/02/14 04:14:21;;;;;;;5.05;2.92;;;9.30;99.90;;;;;;5036966;28;20100;-86
2024/02/14 04:16:46;;;;;;;6.78;3.22;;;9.30;99.90;;;;;;5031784;28;20128;-87
2024/02/14 04:19:12;;;;;;;5.53;3.00;;;9.30;99.90;;;;;;5030899;28;20067;-86
2024/02/14 04:21:38;;;;;;;7.78;3.85;;;9.30;99.90;;;;;;5029764;28;20022;-86
2024/02/14 04:24:04;;;;;;;6.68;3.30;;;9.30;99.90;;;;;;5035597;28;20475;-87
2024/02/14 04:26:30;;;;;;;6.15;3.75;;;9.30;99.90;;;;;;5033245;28;20052;-87
2024/02/14 04:28:55;;;;;;;7.03;3.10;;;9.30;99.90;;;;;;5026570;28;20044;-87
2024/02/14 04:31:21;;;;;;;6.53;3.53;;;9.30;99.90;;;;;;5038478;28;20019;-87
2024/02/14 04:33:51;;;;;;;5.40;3.30;;;9.30;99.90;;;;;;5037346;28;20029;-86
2024/02/14 04:36:19;;;;;;;6.65;3.20;;;9.30;99.90;;;;;;5035055;28;20116;-86
2024/02/14 04:38:44;;;;;;;5.15;3.10;;;9.30;99.90;;;;;;5033246;28;20024;-86
2024/02/14 04:41:10;;;;;;;7.10;3.67;;;9.30;99.90;;;;;;5036659;28;20021;-87
2024/02/14 04:43:35;;;;;;;5.82;3.22;;;9.30;99.90;;;;;;5027334;28;20868;-87
2024/02/14 04:46:01;;;;;;;8.93;3.42;;;9.30;99.90;;;;;;5033636;28;21300;-86
2024/02/14 04:48:27;;;;;;;8.98;4.20;;;9.30;99.90;;;;;;5036028;28;20400;-85
2024/02/14 04:50:53;;;;;;;8.75;3.28;;;9.30;99.90;;;;;;5028169;28;20021;-87
2024/02/14 04:53:19;;;;;;;7.10;3.22;;;9.20;99.90;;;;;;5032827;28;20079;-87
2024/02/14 04:55:45;;;;;;;9.02;3.78;;;9.20;99.90;;;;;;5026474;28;20014;-86
2024/02/14 04:58:10;;;;;;;6.55;3.70;;;9.20;99.90;;;;;;5039713;28;20032;-87
2024/02/14 05:00:36;;;;;;;10.80;3.15;;;9.20;99.90;;;;;;5029280;28;20033;-86
2024/02/14 05:03:02;;;;;;;5.22;3.47;;;9.20;99.90;;;;;;5022090;28;20026;-86
2024/02/14 05:05:27;;;;;;;6.78;3.45;;;9.20;99.90;;;;;;5034238;28;20025;-86
2024/02/14 05:07:53;;;;;;;6.65;3.10;;;9.10;99.90;;;;;;5032111;28;20022;-86
2024/02/14 05:10:19;;;;;;;12.93;3.55;;;9.10;99.90;;;;;;5025282;28;20519;-86
2024/02/14 05:12:44;;;;;;;5.50;3.67;;;9.10;99.90;;;;;;5020592;28;20014;-87
2024/02/14 05:15:12;;;;;;;7.35;4.07;;;9.20;99.90;;;;;;5032534;28;20018;-86
2024/02/14 05:17:37;;;;;;;11.88;4.32;;;9.20;99.90;;;;;;5030115;28;20042;-86
2024/02/14 05:20:08;;;;;;;11.02;3.80;;;9.20;99.90;;;;;;5034086;28;20110;-86
2024/02/14 05:22:38;;;;;;;4.85;2.95;;;9.20;99.90;;;;;;5024155;28;20024;-86
2024/02/14 05:25:04;;;;;;;6.97;3.45;;;9.20;99.90;;;;;;5032278;28;20025;-86
2024/02/14 05:27:33;;;;;;;8.48;3.42;;;9.20;99.90;;;;;;5029486;28;20029;-86
2024/02/14 05:29:59;;;;;;;6.47;3.40;;;9.20;99.90;;;;;;5031992;28;20075;-86
2024/02/14 05:32:24;;;;;;;8.75;3.33;;;9.20;99.90;;;;;;5027478;28;20053;-87
2024/02/14 05:34:51;;;;;;;5.38;3.33;;;9.20;99.90;;;;;;5038432;28;20499;-86
2024/02/14 05:37:17;;;;;;;6.13;3.17;;;9.20;99.90;;;;;;5027866;28;20101;-87
2024/02/14 05:39:42;;;;;;;7.57;4.20;;;9.20;99.90;;;;;;5030501;28;20738;-87
2024/02/14 05:42:08;;;;;;;6.05;3.08;;;9.20;99.90;;;;;;5028581;28;20030;-87
2024/02/14 05:44:34;;;;;;;7.95;3.40;;;9.20;99.90;;;;;;5036484;28;20021;-86
2024/02/14 05:47:00;;;;;;;8.82;3.35;;;9.20;99.90;;;;;;5031583;28;20037;-87
2024/02/14 05:49:25;;;;;;;6.80;3.60;;;9.20;99.90;;;;;;5031540;28;20021;-87
2024/02/14 05:51:53;;;;;;;13.85;3.58;;;9.20;99.90;;;;;;5030116;28;20032;-87
2024/02/14 05:54:19;;;;;;;8.45;3.28;;;9.20;99.90;;;;;;5030017;28;20040;-86
2024/02/14 05:56:45;;;;;;;6.63;3.65;;;9.20;99.90;;;;;;5042036;28;20071;-87
2024/02/14 05:59:11;;;;;;;5.80;2.90;;;9.20;99.90;;;;;;5025356;28;20056;-86
2024/02/14 06:01:37;;;;;;;5.90;3.72;;;9.20;99.90;;;;;;5023736;28;20061;-86
2024/02/14 06:04:02;;;;;;;8.45;3.53;;;9.10;99.90;;;;;;5028033;28;20049;-87
2024/02/14 06:06:28;;;;;;;9.27;3.80;;;9.10;99.90;;;;;;5027333;28;20026;-86
2024/02/14 06:08:54;;;;;;;8.57;3.35;;;9.10;99.90;;;;;;5027869;28;20087;-87
2024/02/14 06:11:21;;;;;;;5.38;3.35;;;9.10;99.90;;;;;;5029814;28;20060;-87
2024/02/14 06:13:47;;;;;;;7.90;3.50;;;9.20;99.90;;;;;;5032519;28;20025;-87
2024/02/14 06:16:13;;;;;;;6.63;3.22;;;9.20;99.90;;;;;;5038347;28;20049;-87
2024/02/14 06:18:42;;;;;;;8.55;3.60;;;9.10;99.90;;;;;;5030188;28;20022;-86
2024/02/14 06:21:07;;;;;;;8.55;3.50;;;9.10;99.90;;;;;;5025974;28;20028;-87
2024/02/14 06:23:33;;;;;;;8.18;3.38;;;9.20;99.90;;;;;;5032585;28;20013;-87
2024/02/14 06:25:59;;;;;;;6.63;3.40;;;9.10;99.90;;;;;;5024254;28;20026;-87
2024/02/14 06:28:24;;;;;;;7.78;3.70;;;9.20;99.90;;;;;;5028020;28;20087;-86
2024/02/14 06:30:50;;;;;;;11.30;4.00;;;9.20;99.90;;;;;;5028716;28;20021;-88
2024/02/14 06:33:15;;;;;;;8.73;3.47;;;9.20;99.90;;;;;;5022843;28;20040;-87
2024/02/14 06:35:41;;;;;;;9.85;3.75;;;9.20;99.90;;;;;;5019178;28;20026;-88
2024/02/14 06:38:07;;;;;;;4.95;3.22;;;9.20;99.90;;;;;;5047585;28;20025;-87
2024/02/14 06:40:33;;;;;;;7.57;3.70;;;9.20;99.90;;;;;;5053022;28;20395;-87
2024/02/14 06:42:59;;;;;;;5.88;3.42;;;9.20;99.90;;;;;;5022919;28;20025;-87
2024/02/14 06:45:26;;;;;;;7.72;3.92;;;9.20;99.90;;;;;;5031729;28;20072;-87
2024/02/14 06:47:51;;;;;;;5.20;3.33;;;9.20;99.90;;;;;;5023396;28;20030;-87
2024/02/14 06:50:17;;;;;;;7.90;3.75;;;9.20;99.90;;;;;;5034596;28;20541;-86
2024/02/14 06:52:43;;;;;;;6.20;4.05;;;9.20;99.90;;;;;;5028030;28;20503;-86
2024/02/14 06:55:08;;;;;;;5.75;3.63;;;9.20;99.90;;;;;;5031602;28;20476;-87
2024/02/14 06:57:34;;;;;;;11.63;3.53;;;9.20;99.90;;;;;;5032361;28;20025;-87
2024/02/14 06:59:59;;;;;;;10.85;3.78;;;9.20;99.90;;;;;;5018131;28;20030;-88
2024/02/14 07:02:27;;;;;;;6.07;3.72;;;9.20;99.90;;;;;;5030271;28;20400;-87
2024/02/14 07:04:54;;;;;;;8.07;4.07;;;9.20;99.90;;;;;;5021729;28;20018;-87
2024/02/14 07:07:20;;;;;;;9.98;4.00;;;9.20;99.90;;;;;;5029187;28;20026;-87
2024/02/14 07:09:45;;;;;;;7.90;4.30;;;9.20;99.90;;;;;;5030830;28;20055;-88
2024/02/14 07:12:11;;;;;;;6.63;3.97;;;9.20;99.90;;;;;;5021366;28;20025;-87
2024/02/14 07:14:36;;;;;;;7.55;4.28;;;9.20;99.90;;;;;;5034761;28;20036;-87
2024/02/14 07:17:03;;;;;;;7.32;4.03;;;9.20;99.90;;;;;;5024221;28;20021;-86
2024/02/14 07:19:28;;;;;;;5.55;3.75;;;9.20;99.90;;;;;;5023948;28;20068;-87
2024/02/14 07:21:54;;;;;;;9.85;4.28;;;9.20;99.90;;;;;;5027930;28;20100;-87
2024/02/14 07:24:19;;;;;;;10.52;4.57;;;9.20;99.90;;;;;;5034038;28;20487;-86
2024/02/14 07:26:45;;;;;;;6.18;3.83;;;9.20;99.90;;;;;;5018721;28;20018;-87
2024/02/14 07:29:11;;;;;;;8.75;3.72;;;9.20;99.90;;;;;;5024572;28;20022;-87
2024/02/14 07:31:37;;;;;;;9.68;3.47;;;9.20;99.90;;;;;;5029243;28;20025;-87
2024/02/14 07:34:05;;;;;;;9.35;3.63;;;9.20;99.90;;;;;;5028899;28;20161;-86
2024/02/14 07:36:32;;;;;;;6.40;3.80;;;9.20;99.90;;;;;;5030365;28;20033;-86
2024/02/14 07:38:57;;;;;;;8.93;4.13;;;9.20;99.90;;;;;;5017967;28;20032;-87
2024/02/14 07:41:23;;;;;;;7.68;4.22;;;9.20;99.90;;;;;;5032343;28;20030;-86
2024/02/14 07:43:49;;;;;;;11.15;4.10;;;9.20;99.90;;;;;;5027914;28;20034;-87
2024/02/14 07:46:19;;;;;;;9.63;3.75;;;9.20;99.90;;;;;;5021334;28;20029;-86
2024/02/14 07:48:44;;;;;;;6.00;3.05;;;9.20;99.90;;;;;;5030101;28;20025;-87
2024/02/14 07:51:10;;;;;;;6.68;3.75;;;9.20;99.90;;;;;;5027961;28;20037;-87
2024/02/14 07:53:35;;;;;;;4.85;3.55;;;9.20;99.90;;;;;;5026941;28;20533;-87
2024/02/14 07:56:01;;;;;;;9.13;3.88;;;9.20;99.90;;;;;;5026905;28;20049;-87
2024/02/14 07:58:27;;;;;;;9.82;3.35;;;9.20;99.90;;;;;;5025531;28;20045;-86
2024/02/14 08:00:52;;;;;;;7.32;3.40;;;9.20;99.90;;;;;;5019653;28;20022;-87
2024/02/14 08:03:18;;;;;;;6.90;3.28;;;9.20;99.90;;;;;;5022432;28;20053;-87
2024/02/14 08:05:43;;;;;;;8.32;3.30;;;9.20;99.90;;;;;;5025504;28;20025;-87
2024/02/14 08:08:09;;;;;;;7.57;3.30;;;9.30;99.90;;;;;;5031051;28;20079;-86
2024/02/14 08:10:34;;;;;;;8.30;3.60;;;9.30;99.90;;;;;;5030072;28;20464;-87
2024/02/14 08:13:00;;;;;;;7.35;3.33;;;9.30;99.90;;;;;;5028763;28;20018;-86
2024/02/14 08:15:26;;;;;;;7.07;3.55;;;9.30;99.90;;;;;;5026936;28;20582;-87
2024/02/14 08:17:55;;;;;;;7.97;4.05;;;9.30;99.90;;;;;;5032568;28;20022;-87
2024/02/14 08:20:21;;;;;;;7.40;3.20;;;9.30;99.90;;;;;;5030329;28;20068;-86
2024/02/14 08:22:46;;;;;;;7.25;3.47;;;9.30;99.90;;;;;;5033194;28;20506;-86
2024/02/14 08:25:12;;;;;;;4.18;2.83;;;9.30;99.90;;;;;;5029215;28;20030;-87
2024/02/14 08:27:37;;;;;;;8.45;3.30;;;9.30;99.90;;;;;;5035722;28;20384;-86
2024/02/14 08:30:05;;;;;;;8.32;3.50;;;9.30;99.90;;;;;;5021764;28;20488;-86
2024/02/14 08:32:32;;;;;;;6.43;3.50;;;9.30;99.90;;;;;;5026031;28;20030;-86
2024/02/14 08:34:57;;;;;;;6.07;3.35;;;9.30;99.90;;;;;;5051679;28;20013;-86
2024/02/14 08:37:24;;;;;;;10.95;3.63;;;9.30;99.90;;;;;;5027445;28;20091;-86
2024/02/14 08:39:50;;;;;;;5.00;3.05;;;9.30;99.90;;;;;;5043425;28;20013;-87
2024/02/14 08:42:16;;;;;;;5.13;3.20;;;9.30;99.90;;;;;;5028329;28;20017;-87
2024/02/14 08:44:41;;;;;;;7.50;3.30;;;9.30;99.90;;;;;;5031464;28;20045;-87
2024/02/14 08:47:07;;;;;;;5.22;3.20;;;9.30;99.90;;;;;;5031411;28;20120;-86
2024/02/14 08:49:33;;;;;;;6.50;3.25;;;9.30;99.90;;;;;;5030600;28;20026;-86
2024/02/14 08:51:59;;;;;;;5.07;3.03;;;9.30;99.90;;;;;;5025281;28;20022;-86
2024/02/14 08:54:24;;;;;;;9.77;3.78;;;9.30;99.90;;;;;;5033121;28;20056;-87
2024/02/14 08:56:55;;;;;;;6.65;3.08;;;9.30;99.90;;;;;;5034291;28;20510;-87
2024/02/14 08:59:21;;;;;;;5.95;3.17;;;9.30;99.90;;;;;;5027107;28;20024;-87
2024/02/14 09:01:46;;;;;;;4.32;2.60;;;9.30;99.90;;;;;;5024270;28;20021;-87
2024/02/14 09:04:12;;;;;;;10.50;4.43;;;9.40;99.90;;;;;;5035270;28;20073;-86
2024/02/14 09:06:39;;;;;;;5.32;2.92;;;9.40;99.90;;;;;;5035902;28;20099;-86
2024/02/14 09:09:04;;;;;;;6.70;2.83;;;9.40;99.90;;;;;;5024640;28;20022;-85
2024/02/14 09:11:31;;;;;;;5.82;2.65;;;9.40;99.90;;;;;;5027789;28;20057;-86
2024/02/14 09:14:02;;;;;;;5.82;3.17;;;9.40;99.90;;;;;;5030513;28;20102;-86
2024/02/14 09:16:28;;;;;;;;;;;9.40;99.90;;;;;;5030717;28;20427;-86
2024/02/14 09:18:53;;;;;;;4.38;3.00;;;9.40;99.90;;;;;;5028898;28;19955;-87
2024/02/14 09:21:19;;;;;;;6.40;2.80;;;9.40;99.90;;;;;;5029882;28;20017;-86
2024/02/14 09:23:47;;;;;;;6.25;3.42;;;9.40;99.90;;;;;;5034676;28;20020;-88
2024/02/14 09:26:12;;;;;;;5.50;2.90;;;9.50;99.90;;;;;;5032446;28;20079;-90
2024/02/14 09:28:40;;;;;;;4.28;2.63;;;9.50;99.90;;;;;;5033466;28;20029;-88
2024/02/14 09:31:06;;;;;;;6.47;2.63;;;9.50;99.90;;;;;;5033896;28;20096;-88
2024/02/14 09:33:31;;;;;;;8.75;3.08;;;9.60;99.90;;;;;;5031238;28;20523;-87
2024/02/14 09:35:57;;;;;;;6.95;2.47;;;9.60;99.90;;;;;;5042530;28;20012;-88
2024/02/14 09:38:22;;;;;;;4.45;2.85;;;9.60;99.90;;;;;;5032691;28;20482;-89
2024/02/14 09:40:56;;;;;;;5.55;2.33;;;9.70;99.90;;;;;;5049390;28;20028;-88
2024/02/14 09:43:35;;;;;;;7.13;3.80;;;9.80;99.90;;;;;;5031182;28;20072;-86
2024/02/14 09:46:02;;;;;;;7.20;2.60;;;10.00;99.90;;;;;;5027594;28;20534;-87
2024/02/14 09:48:30;;;;;;;6.25;2.70;;;10.10;99.90;;;;;;5030031;28;20060;-86
2024/02/14 09:50:56;;;;;;;6.13;2.40;;;10.30;99.90;;;;;;5029697;28;20021;-86
2024/02/14 09:53:23;;;;;;;4.50;2.70;;;10.50;99.90;;;;;;5028645;28;20025;-87
2024/02/14 09:55:50;;;;;;;3.17;2.10;;;10.60;99.90;;;;;;5023842;28;20013;-87
2024/02/14 09:58:16;;;;;;;5.82;2.92;;;10.70;99.90;;;;;;5022753;28;20074;-87
2024/02/14 10:00:42;;;;;;;3.63;2.50;;;10.80;99.90;;;;;;5029059;28;20029;-86
2024/02/14 10:03:08;;;;;;;8.02;2.53;;;10.90;99.90;;;;;;5038674;28;20024;-87
2024/02/14 10:05:33;;;;;;;8.05;2.75;;;11.00;99.90;;;;;;5030985;28;20494;-88
2024/02/14 10:08:01;;;;;;;4.78;2.80;;;11.20;99.90;;;;;;5027586;28;20022;-87
2024/02/14 10:10:27;;;;;;;10.45;3.65;;;11.30;99.90;;;;;;5031072;28;20029;-87
2024/02/14 10:12:55;;;;;;;5.60;2.88;;;11.30;99.90;;;;;;5031065;28;20381;-88
2024/02/14 10:15:21;;;;;;;3.10;2.00;;;11.30;99.90;;;;;;5027808;28;20795;-87
2024/02/14 10:17:47;;;;;;;8.85;2.22;;;11.30;99.90;;;;;;5027391;28;20017;-87
2024/02/14 10:20:17;;;;;;;5.72;2.00;;;11.20;99.90;;;;;;5029527;28;20030;-87
2024/02/14 10:22:44;;;;;;;2.88;1.92;;;11.10;99.90;;;;;;5033783;28;20025;-87
2024/02/14 10:25:10;;;;;;;5.93;2.03;;;11.10;99.90;;;;;;5020229;28;20034;-86
2024/02/14 10:27:40;;;;;;;6.28;1.92;;;11.10;99.90;;;;;;5026971;28;20022;-86
2024/02/14 10:30:09;;;;;;;6.68;2.47;;;11.00;99.90;;;;;;5021214;28;20699;-87
2024/02/14 10:32:36;;;;;;;3.95;2.28;;;10.80;99.90;;;;;;5028189;28;20029;-87
2024/02/14 10:35:11;;;;;;;4.03;1.98;;;10.60;99.90;;;;;;5037180;28;20066;-87
2024/02/14 10:37:37;;;;;;;3.78;2.00;;;10.40;99.90;;;;;;5028038;28;20010;-86
2024/02/14 10:40:04;;;;;;;4.28;2.17;;;10.30;99.90;;;;;;5027934;28;20021;-88
2024/02/14 10:42:31;;;;;;;2.92;1.95;;;10.40;99.90;;;;;;5032937;28;20032;-87
2024/02/14 10:44:56;;;;;;;4.88;2.38;;;10.50;99.90;;;;;;5041878;28;20024;-87
2024/02/14 10:47:29;;;;;;;2.67;1.90;;;10.50;99.90;;;;;;5028378;28;20483;-87
2024/02/14 10:50:01;;;;;;;4.60;2.20;;;10.40;99.90;;;;;;5026946;28;20511;-86
2024/02/14 10:52:38;;;;;;;4.32;1.90;;;10.50;99.90;;;;;;5030321;28;20045;-87
2024/02/14 10:55:05;;;;;;;8.93;2.17;;;10.60;99.90;;;;;;5042910;28;20373;-87
2024/02/14 10:57:34;;;;;;;3.53;2.35;;;11.00;99.90;;;;;;5029839;28;20021;-87
2024/02/14 11:00:05;;;;;;;4.50;2.03;;;11.40;99.90;;;;;;5037070;28;20033;-88
2024/02/14 11:02:32;;;;;;;5.05;1.85;;;11.60;99.90;;;;;;5044019;28;20032;-87
2024/02/14 11:04:58;;;;;;;7.85;1.80;;;11.70;99.90;;;;;;5028567;28;20033;-87
2024/02/14 11:07:23;;;;;;;3.35;1.75;;;11.90;99.90;;;;;;5025174;28;20117;-87
2024/02/14 11:10:07;;;;;;;5.72;1.85;;;11.90;99.90;;;;;;5022065;28;20033;-87
2024/02/14 11:12:35;;;;;;;4.95;2.00;;;11.90;99.90;;;;;;5029613;28;20013;-86
2024/02/14 11:15:01;;;;;;;4.75;1.90;;;12.00;99.90;;;;;;5027659;28;20022;-87
2024/02/14 11:17:27;;;;;;;4.05;1.58;;;12.10;99.90;;;;;;5035572;28;20025;-86
2024/02/14 11:19:53;;;;;;;4.25;1.80;;;12.10;99.90;;;;;;5029282;28;20508;-87
2024/02/14 11:22:19;;;;;;;5.60;1.63;;;12.20;99.90;;;;;;5035011;28;20033;-87
2024/02/14 11:24:49;;;;;;;6.97;2.17;;;12.30;99.90;;;;;;5025291;28;20014;-88
2024/02/14 11:27:20;;;;;;;7.05;2.03;;;12.50;99.90;;;;;;5037303;28;20017;-87
2024/02/14 11:29:52;;;;;;;2.78;1.88;;;12.70;99.90;;;;;;5033316;28;20013;-89
2024/02/14 11:32:18;;;;;;;4.00;2.10;;;12.90;99.90;;;;;;5026887;28;20049;-88
2024/02/14 11:34:52;;;;;;;2.80;1.70;;;13.00;99.90;;;;;;5023332;28;20054;-88
2024/02/14 11:37:27;;;;;;;6.30;1.75;;;13.00;99.90;;;;;;5022891;28;20037;-87
2024/02/14 11:39:53;;;;;;;4.03;2.03;;;12.90;99.90;;;;;;5032340;28;20093;-87
2024/02/14 11:42:21;;;;;;;4.40;1.67;;;12.90;99.90;;;;;;5031105;28;20021;-86
2024/02/14 11:44:46;;;;;;;2.60;1.50;;;12.80;99.90;;;;;;5027542;28;20535;-87
2024/02/14 11:47:12;;;;;;;3.10;1.80;;;12.70;99.90;;;;;;5026138;28;20083;-87
2024/02/14 11:49:39;;;;;;;4.35;1.58;;;12.80;99.90;;;;;;5034912;28;20387;-87
2024/02/14 11:52:05;;;;;;;3.10;1.55;;;12.90;99.90;;;;;;5027567;28;20017;-87
2024/02/14 11:54:30;;;;;;;4.97;2.00;;;12.90;99.90;;;;;;5031546;28;20037;-87
2024/02/14 11:56:56;;;;;;;2.92;1.70;;;12.80;99.90;;;;;;5025802;28;20022;-87
2024/02/14 11:59:23;;;;;;;7.30;2.20;;;12.60;99.90;;;;;;5032614;28;20740;-87
2024/02/14 12:01:51;;;;;;;3.55;2.20;;;12.30;99.90;;;;;;5031269;28;20113;-87
2024/02/14 12:04:17;;;;;;;4.53;1.95;;;12.10;99.90;;;;;;5020547;28;20068;-87
2024/02/14 12:06:43;;;;;;;6.53;1.85;;;12.10;99.90;;;;;;5023176;28;20026;-87
2024/02/14 12:09:12;;;;;;;4.20;1.90;;;12.10;99.90;;;;;;5030944;28;20475;-86
2024/02/14 12:11:39;;;;;;;5.88;1.95;;;12.00;99.90;;;;;;5034771;28;20028;-87
2024/02/14 12:14:09;;;;;;;4.75;2.40;;;12.00;99.90;;;;;;5030645;28;20132;-87
2024/02/14 12:16:40;;;;;;;3.00;1.98;;;12.00;99.90;;;;;;5027525;28;20025;-87
2024/02/14 12:19:09;;;;;;;4.25;1.90;;;12.00;99.90;;;;;;5027147;28;20024;-87
2024/02/14 12:21:39;;;;;;;5.65;2.80;;;12.10;99.90;;;;;;5048347;28;20033;-87
2024/02/14 12:24:08;;;;;;;;;;;12.10;99.90;;;;;;5023414;28;20026;-88
2024/02/14 12:26:36;;;;;;;2.80;1.80;;;12.00;99.90;;;;;;5024482;28;20397;-87
2024/02/14 12:29:06;;;;;;;3.65;2.05;;;12.00;99.90;;;;;;5035018;28;20075;-86
2024/02/14 12:31:32;;;;;;;6.05;2.30;;;11.90;99.90;;;;;;5031990;28;20021;-87
2024/02/14 12:34:00;;;;;;;4.40;2.00;;;11.80;99.90;;;;;;5028480;28;20034;-86
2024/02/14 12:36:27;;;;;;;3.55;2.03;;;11.70;99.90;;;;;;5030172;28;20029;-87
2024/02/14 12:38:53;;;;;;;3.10;2.10;;;11.50;99.90;;;;;;5028876;28;20028;-87
2024/02/14 12:41:19;;;;;;;4.50;2.03;;;11.40;99.90;;;;;;5043481;28;20568;-87
2024/02/14 12:43:45;;;;;;;3.28;2.15;;;11.30;99.90;;;;;;5030656;28;20025;-87
2024/02/14 12:46:10;;;;;;;5.53;1.98;;;11.30;99.90;;;;;;5036653;28;20564;-87
2024/02/14 12:48:36;;;;;;;8.02;2.33;;;11.20;99.90;;;;;;5033512;28;20391;-86
2024/02/14 12:51:01;;;;;;;4.05;2.03;;;11.10;99.90;;;;;;5024173;28;20071;-87